sensor_id;sensor_type;location;lat;lon;timestamp;P1;durP1;ratioP1;P2;durP2;ratioP2
69161;SDS011;56269;51.738;21.652;2023-08-06T00:00:28;14.98;;;6.65;;
69161;SDS011;56269;51.738;21.652;2023-08-06T00:03:14;14.80;;;5.93;;
69161;SDS011;56269;51.738;21.652;2023-08-06T00:05:43;15.15;;;6.93;;
69161;SDS011;56269;51.738;21.652;2023-08-06T00:08:09;15.65;;;7.35;;
69161;SDS011;56269;51.738;21.652;2023-08-06T00:10:35;14.63;;;6.78;;
69161;SDS011;56269;51.738;21.652;2023-08-06T00:13:01;15.35;;;7.35;;
69161;SDS011;56269;51.738;21.652;2023-08-06T00:15:28;16.03;;;7.43;;
69161;SDS011;56269;51.738;21.652;2023-08-06T00:17:54;14.32;;;6.32;;
69161;SDS011;56269;51.738;21.652;2023-08-06T00:20:20;15.15;;;7.25;;
69161;SDS011;56269;51.738;21.652;2023-08-06T00:22:46;18.20;;;7.80;;
69161;SDS011;56269;51.738;21.652;2023-08-06T00:25:13;17.13;;;7.50;;
69161;SDS011;56269;51.738;21.652;2023-08-06T00:27:39;14.23;;;6.53;;
69161;SDS011;56269;51.738;21.652;2023-08-06T00:30:05;14.55;;;6.47;;
69161;SDS011;56269;51.738;21.652;2023-08-06T00:32:32;15.15;;;6.97;;
69161;SDS011;56269;51.738;21.652;2023-08-06T00:34:58;15.98;;;6.40;;
69161;SDS011;56269;51.738;21.652;2023-08-06T00:37:24;15.00;;;6.45;;
69161;SDS011;56269;51.738;21.652;2023-08-06T00:39:50;14.13;;;6.57;;
69161;SDS011;56269;51.738;21.652;2023-08-06T00:42:16;15.88;;;7.07;;
69161;SDS011;56269;51.738;21.652;2023-08-06T00:44:46;15.05;;;6.72;;
69161;SDS011;56269;51.738;21.652;2023-08-06T00:47:12;14.85;;;6.82;;
69161;SDS011;56269;51.738;21.652;2023-08-06T00:49:39;15.80;;;7.00;;
69161;SDS011;56269;51.738;21.652;2023-08-06T00:52:06;11.73;;;6.20;;
69161;SDS011;56269;51.738;21.652;2023-08-06T00:54:33;17.15;;;7.35;;
69161;SDS011;56269;51.738;21.652;2023-08-06T00:57:01;11.77;;;5.50;;
69161;SDS011;56269;51.738;21.652;2023-08-06T00:59:28;19.27;;;7.43;;
69161;SDS011;56269;51.738;21.652;2023-08-06T01:01:55;15.13;;;6.20;;
69161;SDS011;56269;51.738;21.652;2023-08-06T01:04:22;13.87;;;6.00;;
69161;SDS011;56269;51.738;21.652;2023-08-06T01:06:49;18.48;;;6.82;;
69161;SDS011;56269;51.738;21.652;2023-08-06T01:09:39;15.40;;;6.75;;
69161;SDS011;56269;51.738;21.652;2023-08-06T01:12:13;15.95;;;7.40;;
69161;SDS011;56269;51.738;21.652;2023-08-06T01:14:58;15.93;;;6.63;;
69161;SDS011;56269;51.738;21.652;2023-08-06T01:17:31;15.47;;;6.27;;
69161;SDS011;56269;51.738;21.652;2023-08-06T01:19:59;16.77;;;6.82;;
69161;SDS011;56269;51.738;21.652;2023-08-06T01:22:26;14.77;;;6.47;;
69161;SDS011;56269;51.738;21.652;2023-08-06T01:24:52;18.55;;;6.22;;
69161;SDS011;56269;51.738;21.652;2023-08-06T01:32:36;15.40;;;5.90;;
69161;SDS011;56269;51.738;21.652;2023-08-06T01:35:08;14.02;;;5.65;;
69161;SDS011;56269;51.738;21.652;2023-08-06T01:37:37;15.52;;;6.38;;
69161;SDS011;56269;51.738;21.652;2023-08-06T01:40:11;13.95;;;6.10;;
69161;SDS011;56269;51.738;21.652;2023-08-06T01:42:38;11.33;;;4.80;;
69161;SDS011;56269;51.738;21.652;2023-08-06T01:45:05;13.40;;;5.40;;
69161;SDS011;56269;51.738;21.652;2023-08-06T01:47:35;12.45;;;4.80;;
69161;SDS011;56269;51.738;21.652;2023-08-06T01:50:01;17.17;;;6.53;;
69161;SDS011;56269;51.738;21.652;2023-08-06T01:52:28;12.73;;;5.40;;
69161;SDS011;56269;51.738;21.652;2023-08-06T01:54:55;14.23;;;6.27;;
69161;SDS011;56269;51.738;21.652;2023-08-06T01:57:21;15.27;;;6.20;;
69161;SDS011;56269;51.738;21.652;2023-08-06T01:59:47;14.93;;;6.20;;
69161;SDS011;56269;51.738;21.652;2023-08-06T02:02:13;12.90;;;5.88;;
69161;SDS011;56269;51.738;21.652;2023-08-06T02:04:40;14.82;;;6.35;;
69161;SDS011;56269;51.738;21.652;2023-08-06T02:07:06;14.03;;;6.00;;
69161;SDS011;56269;51.738;21.652;2023-08-06T02:09:32;12.02;;;5.63;;
69161;SDS011;56269;51.738;21.652;2023-08-06T02:11:58;15.13;;;6.40;;
69161;SDS011;56269;51.738;21.652;2023-08-06T02:14:25;13.82;;;5.50;;
69161;SDS011;56269;51.738;21.652;2023-08-06T02:16:54;11.93;;;5.70;;
69161;SDS011;56269;51.738;21.652;2023-08-06T02:19:20;14.90;;;6.33;;
69161;SDS011;56269;51.738;21.652;2023-08-06T02:21:46;12.35;;;6.45;;
69161;SDS011;56269;51.738;21.652;2023-08-06T02:24:12;14.10;;;6.00;;
69161;SDS011;56269;51.738;21.652;2023-08-06T02:26:38;14.32;;;6.20;;
69161;SDS011;56269;51.738;21.652;2023-08-06T02:29:05;12.53;;;5.50;;
69161;SDS011;56269;51.738;21.652;2023-08-06T02:31:32;15.32;;;6.47;;
69161;SDS011;56269;51.738;21.652;2023-08-06T02:33:59;15.73;;;6.80;;
69161;SDS011;56269;51.738;21.652;2023-08-06T02:36:25;14.00;;;6.13;;
69161;SDS011;56269;51.738;21.652;2023-08-06T02:38:55;13.25;;;6.47;;
69161;SDS011;56269;51.738;21.652;2023-08-06T02:41:21;14.63;;;7.00;;
69161;SDS011;56269;51.738;21.652;2023-08-06T02:43:47;14.13;;;6.50;;
69161;SDS011;56269;51.738;21.652;2023-08-06T02:46:13;13.57;;;6.22;;
69161;SDS011;56269;51.738;21.652;2023-08-06T02:48:39;12.73;;;5.85;;
69161;SDS011;56269;51.738;21.652;2023-08-06T02:51:05;12.43;;;5.63;;
69161;SDS011;56269;51.738;21.652;2023-08-06T02:53:31;12.48;;;5.53;;
69161;SDS011;56269;51.738;21.652;2023-08-06T02:55:57;12.30;;;5.68;;
69161;SDS011;56269;51.738;21.652;2023-08-06T02:58:24;13.25;;;6.35;;
69161;SDS011;56269;51.738;21.652;2023-08-06T03:01:03;14.40;;;6.10;;
69161;SDS011;56269;51.738;21.652;2023-08-06T03:03:31;11.95;;;5.82;;
69161;SDS011;56269;51.738;21.652;2023-08-06T03:05:57;12.52;;;5.70;;
69161;SDS011;56269;51.738;21.652;2023-08-06T03:08:24;15.48;;;6.25;;
69161;SDS011;56269;51.738;21.652;2023-08-06T03:10:50;13.77;;;6.07;;
69161;SDS011;56269;51.738;21.652;2023-08-06T03:13:17;11.83;;;5.60;;
69161;SDS011;56269;51.738;21.652;2023-08-06T03:15:51;13.18;;;5.63;;
69161;SDS011;56269;51.738;21.652;2023-08-06T03:18:26;12.45;;;6.00;;
69161;SDS011;56269;51.738;21.652;2023-08-06T03:20:53;11.80;;;5.30;;
69161;SDS011;56269;51.738;21.652;2023-08-06T03:23:19;12.18;;;5.78;;
69161;SDS011;56269;51.738;21.652;2023-08-06T03:25:46;11.30;;;5.50;;
69161;SDS011;56269;51.738;21.652;2023-08-06T03:28:12;11.98;;;5.80;;
69161;SDS011;56269;51.738;21.652;2023-08-06T03:30:38;13.38;;;5.50;;
69161;SDS011;56269;51.738;21.652;2023-08-06T03:33:05;12.95;;;5.45;;
69161;SDS011;56269;51.738;21.652;2023-08-06T03:35:31;10.30;;;5.30;;
69161;SDS011;56269;51.738;21.652;2023-08-06T03:37:57;11.83;;;5.43;;
69161;SDS011;56269;51.738;21.652;2023-08-06T03:40:25;10.25;;;4.70;;
69161;SDS011;56269;51.738;21.652;2023-08-06T03:42:51;10.90;;;5.13;;
69161;SDS011;56269;51.738;21.652;2023-08-06T03:45:17;12.60;;;5.78;;
69161;SDS011;56269;51.738;21.652;2023-08-06T03:47:43;10.95;;;5.53;;
69161;SDS011;56269;51.738;21.652;2023-08-06T03:50:09;12.47;;;5.03;;
69161;SDS011;56269;51.738;21.652;2023-08-06T03:52:36;11.85;;;5.65;;
69161;SDS011;56269;51.738;21.652;2023-08-06T03:55:02;11.85;;;5.30;;
69161;SDS011;56269;51.738;21.652;2023-08-06T03:57:29;12.30;;;5.28;;
69161;SDS011;56269;51.738;21.652;2023-08-06T03:59:55;11.73;;;5.30;;
69161;SDS011;56269;51.738;21.652;2023-08-06T04:02:21;10.23;;;5.30;;
69161;SDS011;56269;51.738;21.652;2023-08-06T04:04:48;12.68;;;5.10;;
69161;SDS011;56269;51.738;21.652;2023-08-06T04:07:14;11.52;;;5.32;;
69161;SDS011;56269;51.738;21.652;2023-08-06T04:09:53;11.30;;;5.10;;
69161;SDS011;56269;51.738;21.652;2023-08-06T04:12:21;10.25;;;5.20;;
69161;SDS011;56269;51.738;21.652;2023-08-06T04:14:47;9.40;;;4.73;;
69161;SDS011;56269;51.738;21.652;2023-08-06T04:17:13;11.57;;;5.13;;
69161;SDS011;56269;51.738;21.652;2023-08-06T04:19:39;11.18;;;5.30;;
69161;SDS011;56269;51.738;21.652;2023-08-06T04:22:05;10.20;;;4.75;;
69161;SDS011;56269;51.738;21.652;2023-08-06T04:24:32;8.65;;;4.28;;
69161;SDS011;56269;51.738;21.652;2023-08-06T04:27:00;10.27;;;4.67;;
69161;SDS011;56269;51.738;21.652;2023-08-06T04:29:26;10.57;;;5.03;;
69161;SDS011;56269;51.738;21.652;2023-08-06T04:31:52;10.25;;;5.03;;
69161;SDS011;56269;51.738;21.652;2023-08-06T04:34:19;8.45;;;3.97;;
69161;SDS011;56269;51.738;21.652;2023-08-06T04:36:45;9.27;;;4.28;;
69161;SDS011;56269;51.738;21.652;2023-08-06T04:39:11;9.67;;;4.93;;
69161;SDS011;56269;51.738;21.652;2023-08-06T04:41:37;10.13;;;4.63;;
69161;SDS011;56269;51.738;21.652;2023-08-06T04:44:03;6.78;;;3.05;;
69161;SDS011;56269;51.738;21.652;2023-08-06T04:46:30;8.43;;;3.92;;
69161;SDS011;56269;51.738;21.652;2023-08-06T04:48:56;8.93;;;4.18;;
69161;SDS011;56269;51.738;21.652;2023-08-06T04:51:22;10.10;;;4.87;;
69161;SDS011;56269;51.738;21.652;2023-08-06T04:53:48;10.52;;;5.63;;
69161;SDS011;56269;51.738;21.652;2023-08-06T04:56:14;10.25;;;4.60;;
69161;SDS011;56269;51.738;21.652;2023-08-06T04:58:41;9.18;;;4.63;;
69161;SDS011;56269;51.738;21.652;2023-08-06T05:01:07;10.23;;;4.65;;
69161;SDS011;56269;51.738;21.652;2023-08-06T05:03:33;9.83;;;4.07;;
69161;SDS011;56269;51.738;21.652;2023-08-06T05:05:59;8.98;;;4.50;;
69161;SDS011;56269;51.738;21.652;2023-08-06T05:08:25;9.98;;;4.97;;
69161;SDS011;56269;51.738;21.652;2023-08-06T05:10:52;8.55;;;4.55;;
69161;SDS011;56269;51.738;21.652;2023-08-06T05:13:20;8.98;;;4.57;;
69161;SDS011;56269;51.738;21.652;2023-08-06T05:15:46;9.83;;;4.30;;
69161;SDS011;56269;51.738;21.652;2023-08-06T05:18:12;7.60;;;3.65;;
69161;SDS011;56269;51.738;21.652;2023-08-06T05:20:40;8.65;;;4.50;;
69161;SDS011;56269;51.738;21.652;2023-08-06T05:23:07;7.85;;;4.20;;
69161;SDS011;56269;51.738;21.652;2023-08-06T05:25:36;8.38;;;3.97;;
69161;SDS011;56269;51.738;21.652;2023-08-06T05:28:07;8.13;;;4.23;;
69161;SDS011;56269;51.738;21.652;2023-08-06T05:30:39;8.32;;;4.00;;
69161;SDS011;56269;51.738;21.652;2023-08-06T05:33:06;8.20;;;3.80;;
69161;SDS011;56269;51.738;21.652;2023-08-06T05:35:33;9.00;;;4.65;;
69161;SDS011;56269;51.738;21.652;2023-08-06T05:37:59;7.85;;;3.78;;
69161;SDS011;56269;51.738;21.652;2023-08-06T05:40:25;9.30;;;4.50;;
69161;SDS011;56269;51.738;21.652;2023-08-06T05:42:53;9.15;;;4.13;;
69161;SDS011;56269;51.738;21.652;2023-08-06T05:45:21;8.25;;;4.28;;
69161;SDS011;56269;51.738;21.652;2023-08-06T05:47:50;8.50;;;3.63;;
69161;SDS011;56269;51.738;21.652;2023-08-06T05:50:17;8.48;;;3.90;;
69161;SDS011;56269;51.738;21.652;2023-08-06T05:52:43;8.27;;;4.30;;
69161;SDS011;56269;51.738;21.652;2023-08-06T05:55:09;7.18;;;3.75;;
69161;SDS011;56269;51.738;21.652;2023-08-06T05:57:35;8.50;;;3.90;;
69161;SDS011;56269;51.738;21.652;2023-08-06T06:00:02;8.65;;;3.22;;
69161;SDS011;56269;51.738;21.652;2023-08-06T06:02:30;8.77;;;3.97;;
69161;SDS011;56269;51.738;21.652;2023-08-06T06:04:56;8.90;;;4.10;;
69161;SDS011;56269;51.738;21.652;2023-08-06T06:07:22;10.75;;;4.70;;
69161;SDS011;56269;51.738;21.652;2023-08-06T06:09:50;7.78;;;3.67;;
69161;SDS011;56269;51.738;21.652;2023-08-06T06:12:16;8.68;;;3.85;;
69161;SDS011;56269;51.738;21.652;2023-08-06T06:14:42;8.88;;;3.58;;
69161;SDS011;56269;51.738;21.652;2023-08-06T06:17:08;8.57;;;3.10;;
69161;SDS011;56269;51.738;21.652;2023-08-06T06:19:35;7.75;;;3.83;;
69161;SDS011;56269;51.738;21.652;2023-08-06T06:22:01;9.15;;;4.10;;
69161;SDS011;56269;51.738;21.652;2023-08-06T06:24:27;7.82;;;3.83;;
69161;SDS011;56269;51.738;21.652;2023-08-06T06:26:53;7.95;;;4.00;;
69161;SDS011;56269;51.738;21.652;2023-08-06T06:29:20;8.23;;;4.10;;
69161;SDS011;56269;51.738;21.652;2023-08-06T06:31:46;6.22;;;2.67;;
69161;SDS011;56269;51.738;21.652;2023-08-06T06:34:12;7.07;;;3.20;;
69161;SDS011;56269;51.738;21.652;2023-08-06T06:36:38;7.50;;;3.58;;
69161;SDS011;56269;51.738;21.652;2023-08-06T06:39:05;6.78;;;3.47;;
69161;SDS011;56269;51.738;21.652;2023-08-06T06:41:31;7.70;;;3.63;;
69161;SDS011;56269;51.738;21.652;2023-08-06T06:43:58;7.95;;;4.10;;
69161;SDS011;56269;51.738;21.652;2023-08-06T06:46:24;9.80;;;3.47;;
69161;SDS011;56269;51.738;21.652;2023-08-06T06:48:51;7.88;;;3.75;;
69161;SDS011;56269;51.738;21.652;2023-08-06T06:51:17;6.80;;;3.33;;
69161;SDS011;56269;51.738;21.652;2023-08-06T06:53:43;8.07;;;4.17;;
69161;SDS011;56269;51.738;21.652;2023-08-06T06:56:09;7.82;;;3.50;;
69161;SDS011;56269;51.738;21.652;2023-08-06T06:58:36;7.63;;;3.85;;
69161;SDS011;56269;51.738;21.652;2023-08-06T07:01:04;8.18;;;3.80;;
69161;SDS011;56269;51.738;21.652;2023-08-06T07:03:30;8.02;;;4.05;;
69161;SDS011;56269;51.738;21.652;2023-08-06T07:05:57;8.57;;;3.83;;
69161;SDS011;56269;51.738;21.652;2023-08-06T07:08:26;6.38;;;3.20;;
69161;SDS011;56269;51.738;21.652;2023-08-06T07:11:02;7.70;;;3.88;;
69161;SDS011;56269;51.738;21.652;2023-08-06T07:13:30;7.00;;;3.42;;
69161;SDS011;56269;51.738;21.652;2023-08-06T07:15:56;7.60;;;4.15;;
69161;SDS011;56269;51.738;21.652;2023-08-06T07:18:22;7.30;;;3.80;;
69161;SDS011;56269;51.738;21.652;2023-08-06T07:20:49;7.10;;;3.65;;
69161;SDS011;56269;51.738;21.652;2023-08-06T07:23:17;7.13;;;3.75;;
69161;SDS011;56269;51.738;21.652;2023-08-06T07:25:47;6.68;;;3.05;;
69161;SDS011;56269;51.738;21.652;2023-08-06T07:28:13;7.93;;;3.72;;
69161;SDS011;56269;51.738;21.652;2023-08-06T07:30:41;8.80;;;4.00;;
69161;SDS011;56269;51.738;21.652;2023-08-06T07:33:08;7.75;;;4.00;;
69161;SDS011;56269;51.738;21.652;2023-08-06T07:35:34;7.13;;;3.47;;
69161;SDS011;56269;51.738;21.652;2023-08-06T07:38:02;8.85;;;3.95;;
69161;SDS011;56269;51.738;21.652;2023-08-06T07:40:28;7.93;;;3.90;;
69161;SDS011;56269;51.738;21.652;2023-08-06T07:42:54;6.33;;;3.10;;
69161;SDS011;56269;51.738;21.652;2023-08-06T07:45:20;8.30;;;3.33;;
69161;SDS011;56269;51.738;21.652;2023-08-06T07:47:47;6.72;;;3.40;;
69161;SDS011;56269;51.738;21.652;2023-08-06T07:50:13;6.57;;;3.50;;
69161;SDS011;56269;51.738;21.652;2023-08-06T07:52:39;6.88;;;3.70;;
69161;SDS011;56269;51.738;21.652;2023-08-06T07:55:06;7.83;;;3.80;;
69161;SDS011;56269;51.738;21.652;2023-08-06T07:57:32;7.13;;;4.00;;
69161;SDS011;56269;51.738;21.652;2023-08-06T08:00:00;8.73;;;3.50;;
69161;SDS011;56269;51.738;21.652;2023-08-06T08:02:27;6.38;;;3.05;;
69161;SDS011;56269;51.738;21.652;2023-08-06T08:04:53;6.50;;;3.15;;
69161;SDS011;56269;51.738;21.652;2023-08-06T08:07:20;6.83;;;3.60;;
69161;SDS011;56269;51.738;21.652;2023-08-06T08:09:46;7.38;;;3.50;;
69161;SDS011;56269;51.738;21.652;2023-08-06T08:12:14;6.35;;;3.03;;
69161;SDS011;56269;51.738;21.652;2023-08-06T08:14:40;7.07;;;3.28;;
69161;SDS011;56269;51.738;21.652;2023-08-06T08:17:07;6.85;;;3.20;;
69161;SDS011;56269;51.738;21.652;2023-08-06T08:19:36;7.50;;;3.67;;
69161;SDS011;56269;51.738;21.652;2023-08-06T08:22:02;7.47;;;3.42;;
69161;SDS011;56269;51.738;21.652;2023-08-06T08:24:29;6.75;;;3.03;;
69161;SDS011;56269;51.738;21.652;2023-08-06T08:26:56;7.05;;;3.25;;
69161;SDS011;56269;51.738;21.652;2023-08-06T08:29:22;6.90;;;3.17;;
69161;SDS011;56269;51.738;21.652;2023-08-06T08:31:49;6.43;;;3.20;;
69161;SDS011;56269;51.738;21.652;2023-08-06T08:34:16;7.45;;;3.60;;
69161;SDS011;56269;51.738;21.652;2023-08-06T08:36:43;6.40;;;2.83;;
69161;SDS011;56269;51.738;21.652;2023-08-06T08:39:12;6.03;;;2.90;;
69161;SDS011;56269;51.738;21.652;2023-08-06T08:41:39;6.50;;;3.10;;
69161;SDS011;56269;51.738;21.652;2023-08-06T08:44:08;6.37;;;3.30;;
69161;SDS011;56269;51.738;21.652;2023-08-06T08:46:37;7.65;;;3.33;;
69161;SDS011;56269;51.738;21.652;2023-08-06T08:49:05;7.07;;;3.10;;
69161;SDS011;56269;51.738;21.652;2023-08-06T08:51:33;6.40;;;2.92;;
69161;SDS011;56269;51.738;21.652;2023-08-06T08:54:03;6.68;;;3.40;;
69161;SDS011;56269;51.738;21.652;2023-08-06T08:56:30;6.43;;;3.10;;
69161;SDS011;56269;51.738;21.652;2023-08-06T08:58:57;6.60;;;3.25;;
69161;SDS011;56269;51.738;21.652;2023-08-06T09:01:25;6.85;;;3.20;;
69161;SDS011;56269;51.738;21.652;2023-08-06T09:03:53;5.93;;;2.88;;
69161;SDS011;56269;51.738;21.652;2023-08-06T09:06:21;7.38;;;3.13;;
69161;SDS011;56269;51.738;21.652;2023-08-06T09:08:51;6.30;;;2.80;;
69161;SDS011;56269;51.738;21.652;2023-08-06T09:11:28;6.53;;;3.08;;
69161;SDS011;56269;51.738;21.652;2023-08-06T09:14:03;6.40;;;2.90;;
69161;SDS011;56269;51.738;21.652;2023-08-06T09:16:34;6.18;;;2.90;;
69161;SDS011;56269;51.738;21.652;2023-08-06T09:19:10;5.90;;;2.90;;
69161;SDS011;56269;51.738;21.652;2023-08-06T09:21:46;7.77;;;3.47;;
69161;SDS011;56269;51.738;21.652;2023-08-06T09:24:14;6.30;;;3.05;;
69161;SDS011;56269;51.738;21.652;2023-08-06T09:26:41;6.47;;;3.08;;
69161;SDS011;56269;51.738;21.652;2023-08-06T09:29:09;6.50;;;3.22;;
69161;SDS011;56269;51.738;21.652;2023-08-06T09:31:41;8.25;;;3.70;;
69161;SDS011;56269;51.738;21.652;2023-08-06T09:34:15;6.23;;;2.70;;
69161;SDS011;56269;51.738;21.652;2023-08-06T09:36:42;5.82;;;2.80;;
69161;SDS011;56269;51.738;21.652;2023-08-06T09:39:15;5.70;;;2.85;;
69161;SDS011;56269;51.738;21.652;2023-08-06T09:41:43;6.40;;;2.95;;
69161;SDS011;56269;51.738;21.652;2023-08-06T09:44:19;6.65;;;2.67;;
69161;SDS011;56269;51.738;21.652;2023-08-06T09:46:58;6.00;;;2.80;;
69161;SDS011;56269;51.738;21.652;2023-08-06T09:49:25;5.60;;;2.47;;
69161;SDS011;56269;51.738;21.652;2023-08-06T09:51:54;6.07;;;2.75;;
69161;SDS011;56269;51.738;21.652;2023-08-06T09:54:25;5.45;;;2.55;;
69161;SDS011;56269;51.738;21.652;2023-08-06T09:56:53;6.38;;;2.33;;
69161;SDS011;56269;51.738;21.652;2023-08-06T09:59:19;6.10;;;2.80;;
69161;SDS011;56269;51.738;21.652;2023-08-06T10:01:46;6.85;;;2.67;;
69161;SDS011;56269;51.738;21.652;2023-08-06T10:04:13;6.05;;;2.65;;
69161;SDS011;56269;51.738;21.652;2023-08-06T10:06:42;5.90;;;2.58;;
69161;SDS011;56269;51.738;21.652;2023-08-06T10:09:11;6.85;;;2.55;;
69161;SDS011;56269;51.738;21.652;2023-08-06T10:11:38;6.20;;;3.10;;
69161;SDS011;56269;51.738;21.652;2023-08-06T10:14:09;5.07;;;2.42;;
69161;SDS011;56269;51.738;21.652;2023-08-06T10:16:41;5.40;;;2.60;;
69161;SDS011;56269;51.738;21.652;2023-08-06T10:19:10;7.82;;;3.20;;
69161;SDS011;56269;51.738;21.652;2023-08-06T10:21:38;6.18;;;2.88;;
69161;SDS011;56269;51.738;21.652;2023-08-06T10:24:08;5.50;;;2.57;;
69161;SDS011;56269;51.738;21.652;2023-08-06T10:26:37;6.63;;;3.00;;
69161;SDS011;56269;51.738;21.652;2023-08-06T10:32:02;6.50;;;3.28;;
69161;SDS011;56269;51.738;21.652;2023-08-06T10:37:58;6.80;;;2.77;;
69161;SDS011;56269;51.738;21.652;2023-08-06T10:40:25;6.05;;;3.17;;
69161;SDS011;56269;51.738;21.652;2023-08-06T10:42:52;7.80;;;3.10;;
69161;SDS011;56269;51.738;21.652;2023-08-06T10:45:18;6.55;;;3.30;;
69161;SDS011;56269;51.738;21.652;2023-08-06T10:47:45;6.88;;;3.45;;
69161;SDS011;56269;51.738;21.652;2023-08-06T10:50:12;7.00;;;3.43;;
69161;SDS011;56269;51.738;21.652;2023-08-06T10:52:45;6.63;;;3.58;;
69161;SDS011;56269;51.738;21.652;2023-08-06T10:55:12;6.47;;;3.67;;
69161;SDS011;56269;51.738;21.652;2023-08-06T10:57:40;6.45;;;3.58;;
69161;SDS011;56269;51.738;21.652;2023-08-06T11:00:06;6.70;;;3.43;;
69161;SDS011;56269;51.738;21.652;2023-08-06T11:02:42;6.57;;;3.20;;
69161;SDS011;56269;51.738;21.652;2023-08-06T11:05:09;6.55;;;3.25;;
69161;SDS011;56269;51.738;21.652;2023-08-06T11:07:37;7.15;;;3.45;;
69161;SDS011;56269;51.738;21.652;2023-08-06T11:10:08;7.00;;;3.78;;
69161;SDS011;56269;51.738;21.652;2023-08-06T11:12:36;7.40;;;3.90;;
69161;SDS011;56269;51.738;21.652;2023-08-06T11:15:03;6.43;;;3.37;;
69161;SDS011;56269;51.738;21.652;2023-08-06T11:17:31;6.93;;;3.33;;
69161;SDS011;56269;51.738;21.652;2023-08-06T11:19:59;6.90;;;3.60;;
69161;SDS011;56269;51.738;21.652;2023-08-06T11:22:29;7.32;;;3.45;;
69161;SDS011;56269;51.738;21.652;2023-08-06T11:24:55;7.82;;;3.95;;
69161;SDS011;56269;51.738;21.652;2023-08-06T11:27:22;6.80;;;3.80;;
69161;SDS011;56269;51.738;21.652;2023-08-06T11:29:48;6.85;;;3.33;;
69161;SDS011;56269;51.738;21.652;2023-08-06T11:32:15;6.90;;;3.67;;
69161;SDS011;56269;51.738;21.652;2023-08-06T11:34:41;7.10;;;3.50;;
69161;SDS011;56269;51.738;21.652;2023-08-06T11:37:09;6.88;;;3.47;;
69161;SDS011;56269;51.738;21.652;2023-08-06T11:39:36;6.70;;;3.10;;
69161;SDS011;56269;51.738;21.652;2023-08-06T11:42:04;7.75;;;3.90;;
69161;SDS011;56269;51.738;21.652;2023-08-06T11:44:36;6.45;;;3.33;;
69161;SDS011;56269;51.738;21.652;2023-08-06T11:47:06;8.75;;;3.70;;
69161;SDS011;56269;51.738;21.652;2023-08-06T11:49:37;7.30;;;3.53;;
69161;SDS011;56269;51.738;21.652;2023-08-06T11:52:08;6.33;;;3.27;;
69161;SDS011;56269;51.738;21.652;2023-08-06T11:57:36;8.25;;;4.00;;
69161;SDS011;56269;51.738;21.652;2023-08-06T12:02:33;7.07;;;3.70;;
69161;SDS011;56269;51.738;21.652;2023-08-06T12:05:04;6.73;;;3.33;;
69161;SDS011;56269;51.738;21.652;2023-08-06T12:07:40;6.80;;;3.35;;
69161;SDS011;56269;51.738;21.652;2023-08-06T12:10:28;6.05;;;2.97;;
69161;SDS011;56269;51.738;21.652;2023-08-06T12:12:55;8.55;;;3.25;;
69161;SDS011;56269;51.738;21.652;2023-08-06T12:15:21;7.65;;;3.35;;
69161;SDS011;56269;51.738;21.652;2023-08-06T12:17:49;6.47;;;3.33;;
69161;SDS011;56269;51.738;21.652;2023-08-06T12:20:15;7.10;;;3.25;;
69161;SDS011;56269;51.738;21.652;2023-08-06T12:22:42;5.43;;;2.53;;
69161;SDS011;56269;51.738;21.652;2023-08-06T12:25:09;9.00;;;3.85;;
69161;SDS011;56269;51.738;21.652;2023-08-06T12:27:38;6.63;;;3.45;;
69161;SDS011;56269;51.738;21.652;2023-08-06T12:30:07;5.33;;;2.40;;
69161;SDS011;56269;51.738;21.652;2023-08-06T12:32:34;5.15;;;2.45;;
69161;SDS011;56269;51.738;21.652;2023-08-06T12:35:00;5.75;;;2.30;;
69161;SDS011;56269;51.738;21.652;2023-08-06T12:37:28;5.20;;;2.30;;
69161;SDS011;56269;51.738;21.652;2023-08-06T12:39:54;4.43;;;1.80;;
69161;SDS011;56269;51.738;21.652;2023-08-06T12:42:21;4.73;;;1.93;;
69161;SDS011;56269;51.738;21.652;2023-08-06T12:44:50;4.70;;;1.80;;
69161;SDS011;56269;51.738;21.652;2023-08-06T12:47:17;5.00;;;2.10;;
69161;SDS011;56269;51.738;21.652;2023-08-06T12:49:44;4.93;;;2.05;;
69161;SDS011;56269;51.738;21.652;2023-08-06T12:52:10;5.30;;;2.00;;
69161;SDS011;56269;51.738;21.652;2023-08-06T12:54:38;4.40;;;1.90;;
69161;SDS011;56269;51.738;21.652;2023-08-06T12:57:05;4.53;;;1.77;;
69161;SDS011;56269;51.738;21.652;2023-08-06T12:59:31;5.20;;;2.30;;
69161;SDS011;56269;51.738;21.652;2023-08-06T13:01:59;5.22;;;2.28;;
69161;SDS011;56269;51.738;21.652;2023-08-06T13:04:26;5.30;;;2.25;;
69161;SDS011;56269;51.738;21.652;2023-08-06T13:06:53;5.47;;;2.37;;
69161;SDS011;56269;51.738;21.652;2023-08-06T13:09:21;5.20;;;2.22;;
69161;SDS011;56269;51.738;21.652;2023-08-06T13:11:48;5.30;;;2.30;;
69161;SDS011;56269;51.738;21.652;2023-08-06T13:14:15;5.35;;;2.10;;
69161;SDS011;56269;51.738;21.652;2023-08-06T13:16:43;5.22;;;2.15;;
69161;SDS011;56269;51.738;21.652;2023-08-06T13:19:10;4.70;;;2.03;;
69161;SDS011;56269;51.738;21.652;2023-08-06T13:24:08;5.30;;;2.00;;
69161;SDS011;56269;51.738;21.652;2023-08-06T13:26:35;5.43;;;2.13;;
69161;SDS011;56269;51.738;21.652;2023-08-06T13:29:01;4.88;;;1.95;;
69161;SDS011;56269;51.738;21.652;2023-08-06T13:31:29;5.10;;;2.10;;
69161;SDS011;56269;51.738;21.652;2023-08-06T13:33:56;5.00;;;2.10;;
69161;SDS011;56269;51.738;21.652;2023-08-06T13:36:27;5.28;;;2.35;;
69161;SDS011;56269;51.738;21.652;2023-08-06T13:38:54;5.13;;;2.20;;
69161;SDS011;56269;51.738;21.652;2023-08-06T13:41:21;5.00;;;2.17;;
69161;SDS011;56269;51.738;21.652;2023-08-06T13:43:49;4.80;;;2.07;;
69161;SDS011;56269;51.738;21.652;2023-08-06T13:46:17;4.70;;;2.00;;
69161;SDS011;56269;51.738;21.652;2023-08-06T13:48:46;5.03;;;2.17;;
69161;SDS011;56269;51.738;21.652;2023-08-06T13:51:17;4.90;;;2.10;;
69161;SDS011;56269;51.738;21.652;2023-08-06T13:53:43;5.15;;;2.20;;
69161;SDS011;56269;51.738;21.652;2023-08-06T13:56:10;6.13;;;2.17;;
69161;SDS011;56269;51.738;21.652;2023-08-06T13:58:37;7.20;;;2.25;;
69161;SDS011;56269;51.738;21.652;2023-08-06T14:01:05;5.15;;;2.00;;
69161;SDS011;56269;51.738;21.652;2023-08-06T14:03:31;5.00;;;1.90;;
69161;SDS011;56269;51.738;21.652;2023-08-06T14:05:58;5.03;;;2.10;;
69161;SDS011;56269;51.738;21.652;2023-08-06T14:08:24;4.83;;;1.80;;
69161;SDS011;56269;51.738;21.652;2023-08-06T14:10:51;4.80;;;1.95;;
69161;SDS011;56269;51.738;21.652;2023-08-06T14:13:18;5.18;;;2.05;;
69161;SDS011;56269;51.738;21.652;2023-08-06T14:15:44;5.13;;;2.03;;
69161;SDS011;56269;51.738;21.652;2023-08-06T14:18:14;6.00;;;1.83;;
69161;SDS011;56269;51.738;21.652;2023-08-06T14:20:41;4.37;;;1.90;;
69161;SDS011;56269;51.738;21.652;2023-08-06T14:23:08;5.10;;;1.80;;
69161;SDS011;56269;51.738;21.652;2023-08-06T14:25:36;4.90;;;1.98;;
69161;SDS011;56269;51.738;21.652;2023-08-06T14:28:03;4.10;;;1.70;;
69161;SDS011;56269;51.738;21.652;2023-08-06T14:30:32;4.25;;;1.80;;
69161;SDS011;56269;51.738;21.652;2023-08-06T14:32:59;4.87;;;1.60;;
69161;SDS011;56269;51.738;21.652;2023-08-06T14:35:29;4.40;;;1.60;;
69161;SDS011;56269;51.738;21.652;2023-08-06T14:37:55;5.35;;;1.70;;
69161;SDS011;56269;51.738;21.652;2023-08-06T14:40:22;4.50;;;1.70;;
69161;SDS011;56269;51.738;21.652;2023-08-06T14:42:48;3.92;;;1.40;;
69161;SDS011;56269;51.738;21.652;2023-08-06T14:45:15;4.00;;;1.30;;
69161;SDS011;56269;51.738;21.652;2023-08-06T14:47:41;3.63;;;1.30;;
69161;SDS011;56269;51.738;21.652;2023-08-06T14:50:08;3.13;;;1.20;;
69161;SDS011;56269;51.738;21.652;2023-08-06T14:52:35;4.20;;;1.45;;